Time;durP1;ratioP1;P1;durP2;ratioP2;P2;SDS_P1;SDS_P2;PMS_P1;PMS_P2;Temp;Humidity;BMP_temperature;BMP_pressure;BME280_temperature;BME280_humidity;BME280_pressure;Samples;Min_cycle;Max_cycle;Signal;HPM_P1;HPM_P2
2022/04/07 00:02:13;;;;;;;0.70;0.70;;;-2.60;99.90;;;;;;4975894;28;20346;-82
2022/04/07 00:04:39;;;;;;;0.70;0.70;;;-2.60;99.90;;;;;;4991977;28;20204;-83
2022/04/07 00:07:05;;;;;;;0.70;0.70;;;-2.60;99.90;;;;;;4976633;28;20279;-82
2022/04/07 00:09:30;;;;;;;0.70;0.70;;;-2.60;99.90;;;;;;4988699;28;20236;-82
2022/04/07 00:11:56;;;;;;;0.90;0.90;;;-2.60;99.90;;;;;;4949211;28;20201;-83
2022/04/07 00:14:22;;;;;;;0.80;0.80;;;-2.60;99.90;;;;;;4939925;29;20743;-83
2022/04/07 00:16:47;;;;;;;0.73;0.73;;;-2.60;99.90;;;;;;4956841;28;20193;-83
2022/04/07 00:19:13;;;;;;;0.77;0.77;;;-2.60;99.90;;;;;;4956585;29;20256;-82
2022/04/07 00:21:41;;;;;;;0.73;0.73;;;-2.60;99.90;;;;;;4956331;29;20205;-83
2022/04/07 00:24:07;;;;;;;0.80;0.80;;;-2.60;99.90;;;;;;4956576;29;20228;-82
2022/04/07 00:26:34;;;;;;;0.80;0.80;;;-2.60;99.90;;;;;;4956174;29;20258;-82
2022/04/07 00:29:00;;;;;;;0.73;0.73;;;-2.60;99.90;;;;;;4955332;29;20215;-83
2022/04/07 00:31:25;;;;;;;0.80;0.80;;;-2.60;99.90;;;;;;4954695;29;20201;-82
2022/04/07 00:33:52;;;;;;;0.77;0.77;;;-2.60;99.90;;;;;;4931346;29;20225;-82
2022/04/07 00:36:17;;;;;;;0.80;0.80;;;-2.60;99.90;;;;;;4932199;29;20202;-82
2022/04/07 00:38:43;;;;;;;0.75;0.75;;;-2.60;99.90;;;;;;4919291;29;20198;-82
2022/04/07 00:41:09;;;;;;;0.70;0.70;;;-2.60;99.90;;;;;;4937253;29;20201;-83
2022/04/07 00:43:36;;;;;;;0.80;0.80;;;-2.60;99.90;;;;;;4951863;29;20202;-82
2022/04/07 00:46:02;;;;;;;0.70;0.70;;;-2.60;99.90;;;;;;4962620;28;20201;-82
2022/04/07 00:48:29;;;;;;;3.40;1.80;;;-2.60;99.90;;;;;;4939804;29;20201;-83
2022/04/07 00:50:55;;;;;;;0.70;0.70;;;-2.60;99.90;;;;;;4939832;29;20213;-82
2022/04/07 00:53:23;;;;;;;0.88;0.88;;;-2.60;99.90;;;;;;4956511;28;20217;-83
2022/04/07 00:55:53;;;;;;;0.70;0.70;;;-2.60;99.90;;;;;;4957018;29;20197;-82
2022/04/07 00:58:21;;;;;;;0.80;0.80;;;-2.60;99.90;;;;;;4956556;28;20618;-82
2022/04/07 01:00:46;;;;;;;0.77;0.77;;;-2.50;99.90;;;;;;4939252;29;20283;-82
2022/04/07 01:03:12;;;;;;;0.80;0.80;;;-2.50;99.90;;;;;;4939398;29;20754;-82
2022/04/07 01:05:38;;;;;;;0.80;0.80;;;-2.50;99.90;;;;;;4939234;29;20216;-82
2022/04/07 01:08:06;;;;;;;0.70;0.70;;;-2.40;99.90;;;;;;4955129;28;20273;-82
2022/04/07 01:10:33;;;;;;;0.68;0.68;;;-2.40;99.90;;;;;;4941465;29;20220;-82
2022/04/07 01:13:01;;;;;;;0.80;0.80;;;-2.40;99.90;;;;;;4955066;28;20584;-82
2022/04/07 01:15:27;;;;;;;0.80;0.80;;;-2.40;99.90;;;;;;4938719;29;20299;-82
2022/04/07 01:17:53;;;;;;;0.75;0.75;;;-2.40;99.90;;;;;;4955806;29;20720;-82
2022/04/07 01:20:19;;;;;;;1.08;1.02;;;-2.40;99.90;;;;;;4956349;29;20248;-82
2022/04/07 01:22:46;;;;;;;0.60;0.60;;;-2.30;99.90;;;;;;4956347;29;20220;-82
2022/04/07 01:25:13;;;;;;;0.80;0.80;;;-2.40;99.90;;;;;;4939041;29;20193;-82
2022/04/07 01:27:39;;;;;;;0.80;0.80;;;-2.30;99.90;;;;;;4938720;28;20232;-82
2022/04/07 01:30:08;;;;;;;0.80;0.80;;;-2.30;99.90;;;;;;4954949;29;20192;-82
2022/04/07 01:32:40;;;;;;;0.70;0.70;;;-2.20;99.90;;;;;;4955678;28;20658;-82
2022/04/07 01:35:07;;;;;;;0.80;0.80;;;-2.20;99.90;;;;;;4954651;29;20204;-82
2022/04/07 01:37:33;;;;;;;0.70;0.70;;;-2.20;99.90;;;;;;4954623;28;20192;-82
2022/04/07 01:40:01;;;;;;;0.80;0.80;;;-2.20;99.90;;;;;;4954774;29;20247;-82
2022/04/07 01:42:28;;;;;;;1.08;1.02;;;-2.20;99.90;;;;;;4943039;29;20201;-82
2022/04/07 01:44:57;;;;;;;0.68;0.68;;;-2.20;99.90;;;;;;4934663;29;20198;-81
2022/04/07 01:47:23;;;;;;;0.70;0.70;;;-2.20;99.90;;;;;;4944118;29;20687;-81
2022/04/07 01:50:07;;;;;;;0.63;0.63;;;-2.20;99.90;;;;;;4937722;29;20731;-81
2022/04/07 01:52:38;;;;;;;0.60;0.60;;;-2.20;99.90;;;;;;4937397;28;20251;-82
2022/04/07 01:55:05;;;;;;;0.70;0.70;;;-2.10;99.90;;;;;;4937618;29;20205;-81
2022/04/07 01:57:31;;;;;;;0.80;0.80;;;-2.10;99.90;;;;;;4937417;28;20201;-81
2022/04/07 01:59:58;;;;;;;0.50;0.50;;;-2.10;99.90;;;;;;4954947;29;20259;-81
2022/04/07 02:02:24;;;;;;;0.93;0.93;;;-2.00;99.90;;;;;;4936547;29;20656;-82
2022/04/07 02:04:58;;;;;;;0.80;0.80;;;-2.00;99.90;;;;;;4954677;29;20199;-82
2022/04/07 02:07:31;;;;;;;0.70;0.70;;;-2.00;99.90;;;;;;4953853;29;20957;-82
2022/04/07 02:09:58;;;;;;;1.10;1.10;;;-2.10;99.90;;;;;;4955018;28;20586;-82
2022/04/07 02:12:27;;;;;;;0.77;0.77;;;-2.10;99.90;;;;;;4974866;28;20204;-81
2022/04/07 02:14:53;;;;;;;0.70;0.70;;;-2.20;99.90;;;;;;4992164;28;20242;-82
2022/04/07 02:17:20;;;;;;;0.80;0.80;;;-2.20;99.90;;;;;;4992040;28;20203;-82
2022/04/07 02:19:55;;;;;;;0.80;0.80;;;-2.20;99.90;;;;;;4986616;28;20204;-81
2022/04/07 02:22:21;;;;;;;0.70;0.70;;;-2.20;99.90;;;;;;4973719;28;20188;-82
2022/04/07 02:24:48;;;;;;;0.70;0.70;;;-2.30;99.90;;;;;;4973023;28;20247;-82
2022/04/07 02:27:15;;;;;;;0.75;0.75;;;-2.30;99.90;;;;;;4972792;28;20254;-82
2022/04/07 02:29:42;;;;;;;0.77;0.77;;;-2.30;99.90;;;;;;4957777;28;20667;-82
2022/04/07 02:32:09;;;;;;;0.73;0.73;;;-2.30;99.90;;;;;;4957666;28;20290;-81
2022/04/07 02:34:35;;;;;;;0.70;0.70;;;-2.20;99.90;;;;;;4974709;28;20212;-82
2022/04/07 02:37:00;;;;;;;0.70;0.70;;;-2.30;99.90;;;;;;4954332;28;20691;-81
2022/04/07 02:39:26;;;;;;;0.80;0.80;;;-2.30;99.90;;;;;;4970599;28;20196;-83
2022/04/07 02:41:53;;;;;;;0.80;0.80;;;-2.40;99.90;;;;;;4961141;28;20196;-84
2022/04/07 02:44:20;;;;;;;0.80;0.80;;;-2.40;99.90;;;;;;4961204;28;20278;-83
2022/04/07 02:46:46;;;;;;;0.70;0.70;;;-2.40;99.90;;;;;;4961344;28;20265;-84
2022/04/07 02:49:12;;;;;;;0.70;0.70;;;-2.30;99.90;;;;;;4961240;28;20714;-83
2022/04/07 02:51:38;;;;;;;0.80;0.80;;;-2.40;99.90;;;;;;4978329;28;20647;-83
2022/04/07 02:54:03;;;;;;;0.63;0.63;;;-2.40;99.90;;;;;;4978387;28;20223;-83
2022/04/07 02:56:29;;;;;;;0.70;0.70;;;-2.50;99.90;;;;;;4960751;28;20287;-85
2022/04/07 02:58:56;;;;;;;0.77;0.77;;;-2.50;99.90;;;;;;4960821;28;20239;-85
2022/04/07 03:01:21;;;;;;;0.68;0.68;;;-2.50;99.90;;;;;;4960080;28;20373;-84
2022/04/07 03:03:49;;;;;;;0.80;0.80;;;-2.50;99.90;;;;;;4976884;28;20283;-85
2022/04/07 03:06:15;;;;;;;0.80;0.80;;;-2.40;99.90;;;;;;4978528;28;20196;-84
2022/04/07 03:08:41;;;;;;;0.80;0.80;;;-2.40;99.90;;;;;;4976749;28;20719;-85
2022/04/07 03:11:08;;;;;;;0.70;0.70;;;-2.40;99.90;;;;;;4976900;28;20239;-85
2022/04/07 03:13:36;;;;;;;0.80;0.80;;;-2.30;99.90;;;;;;4976089;28;20212;-85
2022/04/07 03:16:02;;;;;;;0.70;0.70;;;-2.30;99.90;;;;;;4977820;28;20276;-85
2022/04/07 03:18:28;;;;;;;0.80;0.80;;;-2.30;99.90;;;;;;4976667;28;20234;-85
2022/04/07 03:20:54;;;;;;;0.60;0.60;;;-2.30;99.90;;;;;;4953436;29;20688;-83
2022/04/07 03:23:20;;;;;;;0.60;0.60;;;-2.20;99.90;;;;;;4957532;29;20603;-83
2022/04/07 03:25:46;;;;;;;1.10;1.00;;;-2.20;99.90;;;;;;4941512;29;20204;-84
2022/04/07 03:28:12;;;;;;;0.80;0.80;;;-2.20;99.90;;;;;;4958433;28;20268;-84
2022/04/07 03:30:38;;;;;;;0.77;0.77;;;-2.20;99.90;;;;;;4941204;29;20197;-84
2022/04/07 03:33:06;;;;;;;0.80;0.80;;;-2.20;99.90;;;;;;4957284;28;20209;-84
2022/04/07 03:35:32;;;;;;;0.80;0.80;;;-2.20;99.90;;;;;;4953776;29;20555;-85
2022/04/07 03:37:58;;;;;;;0.80;0.80;;;-2.20;99.90;;;;;;4940332;28;20192;-84
2022/04/07 03:40:25;;;;;;;0.80;0.80;;;-2.10;99.90;;;;;;4956968;29;20223;-83
2022/04/07 03:42:51;;;;;;;0.77;0.77;;;-2.10;99.90;;;;;;4941341;29;20239;-85
2022/04/07 03:45:18;;;;;;;0.80;0.80;;;-2.20;99.90;;;;;;4941089;29;20622;-84
2022/04/07 03:47:43;;;;;;;0.70;0.70;;;-2.20;99.90;;;;;;4940094;29;20252;-83
2022/04/07 03:50:09;;;;;;;0.85;0.85;;;-2.10;99.90;;;;;;4957947;29;20198;-84
2022/04/07 03:52:36;;;;;;;0.70;0.70;;;-2.10;99.90;;;;;;4956516;28;20208;-83
2022/04/07 03:55:03;;;;;;;0.60;0.60;;;-2.10;99.90;;;;;;4958134;29;20714;-82
2022/04/07 03:57:28;;;;;;;0.65;0.65;;;-2.00;99.90;;;;;;4957910;28;20204;-83
2022/04/07 03:59:54;;;;;;;0.70;0.70;;;-2.00;99.90;;;;;;4938794;29;20201;-83
2022/04/07 04:02:20;;;;;;;0.73;0.73;;;-2.00;99.90;;;;;;4937514;29;20193;-82
2022/04/07 04:04:46;;;;;;;0.73;0.73;;;-2.00;99.90;;;;;;4937411;29;20569;-83
2022/04/07 04:07:11;;;;;;;0.77;0.77;;;-2.00;99.90;;;;;;4938642;29;20197;-83
2022/04/07 04:09:37;;;;;;;0.70;0.70;;;-2.00;99.90;;;;;;4954856;29;20224;-81
2022/04/07 04:12:03;;;;;;;0.60;0.60;;;-2.00;99.90;;;;;;4957898;29;20217;-83
2022/04/07 04:14:29;;;;;;;0.70;0.70;;;-2.00;99.90;;;;;;4955421;29;20221;-84
2022/04/07 04:16:55;;;;;;;0.70;0.70;;;-1.90;99.90;;;;;;4960850;28;20218;-83
2022/04/07 04:19:21;;;;;;;0.90;0.90;;;-1.90;99.90;;;;;;4958490;28;20210;-84
2022/04/07 04:21:47;;;;;;;0.60;0.60;;;-1.90;99.90;;;;;;4974862;28;20244;-83
2022/04/07 04:24:12;;;;;;;0.73;0.73;;;-1.90;99.90;;;;;;4975859;28;20207;-84
2022/04/07 04:26:38;;;;;;;0.70;0.70;;;-1.90;99.90;;;;;;4974609;28;20231;-82
2022/04/07 04:29:05;;;;;;;0.80;0.80;;;-1.80;99.90;;;;;;4975875;28;20235;-82
2022/04/07 04:31:30;;;;;;;0.80;0.80;;;-1.80;99.90;;;;;;4975460;28;20254;-83
2022/04/07 04:33:56;;;;;;;0.82;0.82;;;-1.80;99.90;;;;;;4974455;28;20220;-82
2022/04/07 04:36:22;;;;;;;0.70;0.70;;;-1.80;99.90;;;;;;4975449;28;20204;-82
2022/04/07 04:38:49;;;;;;;0.70;0.70;;;-1.70;99.90;;;;;;4958231;28;20223;-82
2022/04/07 04:41:15;;;;;;;1.35;1.25;;;-1.80;99.90;;;;;;4958249;28;20558;-81
2022/04/07 04:43:41;;;;;;;0.75;0.75;;;-1.70;99.90;;;;;;4958866;28;20196;-82
2022/04/07 04:46:07;;;;;;;0.73;0.73;;;-1.70;99.90;;;;;;4976468;28;20671;-82
2022/04/07 04:48:38;;;;;;;0.75;0.75;;;-1.70;99.90;;;;;;4958752;28;20199;-82
2022/04/07 04:51:04;;;;;;;0.70;0.70;;;-1.70;99.90;;;;;;4974948;28;20231;-82
2022/04/07 04:53:30;;;;;;;0.73;0.73;;;-1.60;99.90;;;;;;4974569;28;20216;-83
2022/04/07 04:55:56;;;;;;;0.60;0.60;;;-1.60;99.90;;;;;;4957740;28;20287;-82
2022/04/07 04:58:22;;;;;;;0.70;0.70;;;-1.50;99.90;;;;;;4974625;28;20685;-82
2022/04/07 05:00:48;;;;;;;0.70;0.70;;;-1.50;99.90;;;;;;4975922;28;20657;-83
2022/04/07 05:03:14;;;;;;;0.70;0.70;;;-1.40;99.90;;;;;;4975384;28;20196;-83
2022/04/07 05:05:40;;;;;;;0.70;0.70;;;-1.40;99.90;;;;;;4974711;28;20208;-82
2022/04/07 05:08:06;;;;;;;0.70;0.70;;;-1.40;99.90;;;;;;4978634;28;20238;-83
2022/04/07 05:10:32;;;;;;;0.80;0.80;;;-1.30;99.90;;;;;;4993930;28;20199;-83
2022/04/07 05:13:00;;;;;;;0.70;0.70;;;-1.30;99.90;;;;;;4973553;28;20244;-85
2022/04/07 05:15:26;;;;;;;0.80;0.80;;;-1.20;99.90;;;;;;4958147;28;20224;-83
2022/04/07 05:17:53;;;;;;;0.80;0.80;;;-1.20;99.90;;;;;;4974227;28;20193;-83
2022/04/07 05:20:21;;;;;;;0.70;0.70;;;-1.20;99.90;;;;;;4958059;28;20204;-83
2022/04/07 05:22:47;;;;;;;0.70;0.70;;;-1.10;99.90;;;;;;4975660;28;20192;-83
2022/04/07 05:25:12;;;;;;;0.70;0.70;;;-1.10;99.90;;;;;;4975711;28;20193;-83
2022/04/07 05:27:39;;;;;;;0.75;0.75;;;-1.10;99.90;;;;;;4957948;28;20223;-83
2022/04/07 05:30:10;;;;;;;0.70;0.70;;;-1.00;99.90;;;;;;4974903;28;20560;-83
2022/04/07 05:32:35;;;;;;;0.63;0.63;;;-1.00;99.90;;;;;;4985434;28;20558;-82
2022/04/07 05:35:01;;;;;;;0.60;0.60;;;-1.00;99.90;;;;;;4976782;28;20212;-84
2022/04/07 05:37:27;;;;;;;0.68;0.68;;;-1.00;99.90;;;;;;4973753;28;20287;-83
2022/04/07 05:39:52;;;;;;;0.70;0.70;;;-0.90;99.90;;;;;;4958149;28;20196;-83
2022/04/07 05:42:19;;;;;;;0.70;0.70;;;-0.80;99.90;;;;;;4975378;28;20196;-83
2022/04/07 05:44:45;;;;;;;0.70;0.70;;;-0.80;99.90;;;;;;4974152;28;20271;-83
2022/04/07 05:47:11;;;;;;;0.70;0.70;;;-0.70;99.90;;;;;;4974579;28;20204;-83
2022/04/07 05:49:37;;;;;;;0.70;0.70;;;-0.70;99.90;;;;;;4975011;28;20192;-83
2022/04/07 05:52:04;;;;;;;0.65;0.65;;;-0.60;99.90;;;;;;4991660;28;20207;-83
2022/04/07 05:54:31;;;;;;;0.70;0.70;;;-0.60;99.90;;;;;;4976596;28;20255;-83
2022/04/07 05:56:57;;;;;;;0.68;0.68;;;-0.60;99.90;;;;;;4976364;28;20670;-84
2022/04/07 05:59:22;;;;;;;0.70;0.70;;;-0.50;99.90;;;;;;4993322;28;20195;-84
2022/04/07 06:01:48;;;;;;;0.65;0.65;;;-0.50;99.90;;;;;;4992375;28;20782;-84
2022/04/07 06:04:14;;;;;;;0.70;0.70;;;-0.40;99.90;;;;;;4993709;28;20195;-85
2022/04/07 06:06:40;;;;;;;0.63;0.63;;;-0.30;99.90;;;;;;4992073;28;20356;-83
2022/04/07 06:09:06;;;;;;;0.80;0.80;;;-0.30;99.90;;;;;;4989055;28;20238;-80
2022/04/07 06:11:32;;;;;;;0.70;0.70;;;-0.20;99.90;;;;;;4973755;28;20675;-82
2022/04/07 06:13:58;;;;;;;0.70;0.70;;;-0.10;99.90;;;;;;4973996;28;20212;-86
2022/04/07 06:16:24;;;;;;;0.70;0.70;;;-0.10;99.90;;;;;;4960768;28;20239;-83
2022/04/07 06:18:51;;;;;;;0.60;0.60;;;-0.10;99.90;;;;;;4962001;28;20218;-82
2022/04/07 06:21:17;;;;;;;0.63;0.63;;;0.00;99.90;;;;;;4978546;28;20566;-83
2022/04/07 06:23:42;;;;;;;0.80;0.80;;;0.00;99.90;;;;;;4972749;28;20285;-83
2022/04/07 06:26:08;;;;;;;0.70;0.70;;;0.00;99.90;;;;;;4980884;28;20249;-83
2022/04/07 06:28:34;;;;;;;0.60;0.60;;;0.10;99.90;;;;;;4988528;28;20235;-83
2022/04/07 06:30:59;;;;;;;0.70;0.70;;;0.10;99.90;;;;;;4961240;28;20639;-81
2022/04/07 06:33:25;;;;;;;0.70;0.70;;;0.20;99.90;;;;;;4961259;28;20208;-82
2022/04/07 06:35:51;;;;;;;0.70;0.70;;;0.20;99.90;;;;;;4957594;29;20233;-82
2022/04/07 06:38:17;;;;;;;0.80;0.80;;;0.30;99.90;;;;;;4958431;29;20252;-83
2022/04/07 06:40:44;;;;;;;0.60;0.60;;;0.30;99.90;;;;;;4957666;29;20205;-84
2022/04/07 06:43:10;;;;;;;0.80;0.80;;;0.30;99.90;;;;;;4959444;29;20559;-83
2022/04/07 06:45:36;;;;;;;0.70;0.70;;;0.40;99.90;;;;;;4957785;29;20255;-83
2022/04/07 06:48:01;;;;;;;0.60;0.60;;;0.40;99.90;;;;;;4983217;28;20196;-83
2022/04/07 06:50:27;;;;;;;0.63;0.63;;;0.40;99.90;;;;;;4992949;28;20204;-82
2022/04/07 06:52:55;;;;;;;0.70;0.70;;;0.50;99.90;;;;;;4993125;28;20204;-82
2022/04/07 06:55:21;;;;;;;0.60;0.60;;;0.50;99.90;;;;;;4978387;28;20207;-82
2022/04/07 06:58:03;;;;;;;0.90;0.77;;;0.60;99.90;;;;;;4978549;28;20196;-82
2022/04/07 07:00:34;;;;;;;0.60;0.60;;;0.80;99.90;;;;;;4976505;28;20395;-82
2022/04/07 07:03:02;;;;;;;0.70;0.70;;;0.80;99.90;;;;;;4993075;28;20279;-84
2022/04/07 07:05:30;;;;;;;0.70;0.70;;;0.90;99.90;;;;;;4992042;28;20200;-82
2022/04/07 07:07:56;;;;;;;0.60;0.60;;;0.90;99.90;;;;;;4960454;28;20239;-82
2022/04/07 07:10:28;;;;;;;0.70;0.70;;;1.00;99.90;;;;;;4960396;28;20196;-82
2022/04/07 07:12:54;;;;;;;1.00;1.00;;;1.00;99.90;;;;;;4976548;28;20204;-81
2022/04/07 07:15:23;;;;;;;0.80;0.80;;;1.10;99.90;;;;;;4977524;28;20189;-82
2022/04/07 07:17:49;;;;;;;0.70;0.70;;;1.20;99.90;;;;;;4976192;28;20196;-82
2022/04/07 07:20:15;;;;;;;1.95;1.48;;;1.10;99.90;;;;;;4961989;28;20199;-81
2022/04/07 07:22:42;;;;;;;0.70;0.70;;;1.20;99.90;;;;;;4957772;29;20199;-81
2022/04/07 07:25:09;;;;;;;0.60;0.60;;;1.30;99.90;;;;;;4968938;28;20196;-81
2022/04/07 07:27:40;;;;;;;0.60;0.60;;;1.40;99.90;;;;;;4959692;28;20207;-81
2022/04/07 07:30:10;;;;;;;0.70;0.70;;;1.50;99.90;;;;;;4960257;28;20203;-81
2022/04/07 07:32:40;;;;;;;0.55;0.55;;;1.50;99.90;;;;;;4960220;28;20248;-82
2022/04/07 07:35:08;;;;;;;0.57;0.57;;;1.60;99.90;;;;;;4959872;28;20215;-83
2022/04/07 07:37:34;;;;;;;0.60;0.60;;;1.70;99.90;;;;;;4975860;28;20193;-83
2022/04/07 07:40:11;;;;;;;0.60;0.60;;;1.70;99.90;;;;;;4976112;28;20203;-81
2022/04/07 07:42:42;;;;;;;0.60;0.60;;;1.70;99.90;;;;;;4975687;28;20207;-81
2022/04/07 07:45:08;;;;;;;0.60;0.60;;;1.80;99.90;;;;;;4975878;28;20286;-82
2022/04/07 07:47:34;;;;;;;0.70;0.70;;;1.80;99.90;;;;;;4975696;28;20211;-82
2022/04/07 07:50:05;;;;;;;0.65;0.65;;;2.00;99.90;;;;;;4975739;28;20200;-82
2022/04/07 07:52:31;;;;;;;0.55;0.55;;;2.00;99.90;;;;;;4975448;28;20236;-82
2022/04/07 07:54:57;;;;;;;0.65;0.65;;;2.00;99.90;;;;;;4974964;28;20216;-83
2022/04/07 07:57:23;;;;;;;0.70;0.70;;;2.10;99.90;;;;;;4974549;28;20196;-84
2022/04/07 07:59:51;;;;;;;0.70;0.70;;;2.20;99.90;;;;;;4974646;28;20206;-83
2022/04/07 08:02:18;;;;;;;0.80;0.80;;;2.10;99.90;;;;;;4973634;28;20942;-82
2022/04/07 08:04:45;;;;;;;0.60;0.60;;;2.10;99.90;;;;;;4961019;28;20266;-83
2022/04/07 08:07:13;;;;;;;0.77;0.77;;;2.10;99.90;;;;;;4976008;28;20563;-83
2022/04/07 08:09:39;;;;;;;0.60;0.60;;;2.20;99.90;;;;;;4971296;28;20328;-83
2022/04/07 08:12:04;;;;;;;0.60;0.60;;;2.20;99.90;;;;;;4956131;29;20205;-82
2022/04/07 08:14:30;;;;;;;0.70;0.70;;;2.30;99.90;;;;;;4955727;29;20696;-84
2022/04/07 08:16:56;;;;;;;0.70;0.70;;;2.30;99.90;;;;;;4938897;29;20231;-84
2022/04/07 08:19:22;;;;;;;0.70;0.70;;;2.30;99.90;;;;;;4920733;29;20318;-83
2022/04/07 08:21:48;;;;;;;0.57;0.57;;;2.30;99.90;;;;;;4930164;29;20284;-84
2022/04/07 08:24:19;;;;;;;0.70;0.70;;;2.30;99.90;;;;;;4921063;29;20239;-84
2022/04/07 08:26:45;;;;;;;0.60;0.60;;;2.30;99.90;;;;;;4936790;29;20669;-84
2022/04/07 08:29:11;;;;;;;0.60;0.60;;;2.30;99.90;;;;;;4937921;29;20204;-84
2022/04/07 08:31:36;;;;;;;0.60;0.60;;;2.40;99.90;;;;;;4936445;29;20220;-83
2022/04/07 08:34:03;;;;;;;0.68;0.68;;;2.30;99.90;;;;;;4937058;29;20676;-84
2022/04/07 08:36:28;;;;;;;0.55;0.55;;;2.40;99.90;;;;;;4935611;29;20202;-83
2022/04/07 08:38:54;;;;;;;0.60;0.60;;;2.40;99.90;;;;;;4937167;29;20679;-83
2022/04/07 08:41:21;;;;;;;0.60;0.60;;;2.50;99.90;;;;;;4920578;29;20202;-84
2022/04/07 08:43:47;;;;;;;0.70;0.70;;;2.50;99.90;;;;;;4920592;29;20210;-84
2022/04/07 08:46:13;;;;;;;0.60;0.60;;;2.40;99.90;;;;;;4920456;29;20201;-84
2022/04/07 08:48:43;;;;;;;0.60;0.60;;;2.50;99.90;;;;;;4936428;29;20221;-84
2022/04/07 08:51:11;;;;;;;0.60;0.60;;;2.50;99.90;;;;;;4936666;29;20315;-83
2022/04/07 08:53:38;;;;;;;0.60;0.60;;;2.40;99.90;;;;;;4920475;29;20212;-84
2022/04/07 08:56:06;;;;;;;0.60;0.60;;;2.50;99.90;;;;;;4920545;29;20296;-84
2022/04/07 08:58:32;;;;;;;0.65;0.65;;;2.40;99.90;;;;;;4927923;29;20305;-84
2022/04/07 09:01:02;;;;;;;0.70;0.70;;;2.50;99.90;;;;;;4939487;29;20197;-85
2022/04/07 09:03:28;;;;;;;0.80;0.80;;;2.60;99.90;;;;;;4936401;29;20675;-84
2022/04/07 09:05:58;;;;;;;0.50;0.50;;;2.70;99.90;;;;;;4952159;29;20205;-83
2022/04/07 09:08:38;;;;;;;0.55;0.55;;;2.80;99.90;;;;;;4926313;29;20241;-83
2022/04/07 09:11:06;;;;;;;0.60;0.60;;;2.60;99.90;;;;;;4957303;28;20201;-83
2022/04/07 09:13:42;;;;;;;0.60;0.60;;;2.60;99.90;;;;;;4977280;28;20226;-84
2022/04/07 09:16:15;;;;;;;0.65;0.65;;;2.70;99.90;;;;;;4977602;28;20203;-83
2022/04/07 09:18:42;;;;;;;0.60;0.60;;;2.60;99.90;;;;;;4993338;28;20206;-83
2022/04/07 09:21:16;;;;;;;0.60;0.60;;;2.60;99.90;;;;;;4976708;28;20200;-84
2022/04/07 09:23:42;;;;;;;0.70;0.70;;;2.60;99.90;;;;;;4976816;28;20417;-83
2022/04/07 09:26:12;;;;;;;0.50;0.50;;;2.60;99.90;;;;;;4977359;28;20297;-83
2022/04/07 09:28:39;;;;;;;0.63;0.63;;;2.60;99.90;;;;;;4993615;28;20229;-83
2022/04/07 09:31:07;;;;;;;0.57;0.57;;;2.50;99.90;;;;;;4993356;28;20290;-84
2022/04/07 09:33:33;;;;;;;0.65;0.65;;;2.60;99.90;;;;;;4993224;28;20279;-83
2022/04/07 09:36:05;;;;;;;0.70;0.70;;;2.60;99.90;;;;;;4976908;28;20330;-82
2022/04/07 09:38:31;;;;;;;0.70;0.70;;;2.40;99.90;;;;;;4993296;28;20199;-81
2022/04/07 09:41:09;;;;;;;0.70;0.70;;;2.40;99.90;;;;;;4993355;28;20196;-80
2022/04/07 09:43:46;;;;;;;0.80;0.80;;;2.40;99.90;;;;;;4994531;28;20206;-79
2022/04/07 09:46:39;;;;;;;0.70;0.70;;;2.40;99.90;;;;;;4999996;28;20206;-83
2022/04/07 09:49:09;;;;;;;6.43;2.15;;;2.30;99.90;;;;;;4993809;28;20686;-80
2022/04/07 09:51:46;;;;;;;0.70;0.70;;;2.30;99.90;;;;;;4992042;28;20199;-80
2022/04/07 09:54:14;;;;;;;0.77;0.77;;;2.40;99.90;;;;;;4988633;28;20208;-81
2022/04/07 09:56:42;;;;;;;0.70;0.70;;;2.30;99.90;;;;;;4972444;28;20203;-81
2022/04/07 09:59:08;;;;;;;0.70;0.70;;;2.20;99.90;;;;;;4956772;28;20207;-80
2022/04/07 10:01:38;;;;;;;0.70;0.70;;;2.30;99.90;;;;;;4974830;28;20188;-81
2022/04/07 10:04:08;;;;;;;0.60;0.60;;;2.00;99.90;;;;;;4974646;28;20239;-80
2022/04/07 10:06:35;;;;;;;0.65;0.65;;;1.80;99.90;;;;;;4973447;28;20258;-80
2022/04/07 10:09:11;;;;;;;0.60;0.60;;;1.90;99.90;;;;;;4972996;28;20634;-81
2022/04/07 10:11:37;;;;;;;0.70;0.70;;;1.90;99.90;;;;;;4957224;28;20204;-81
2022/04/07 10:14:03;;;;;;;0.63;0.63;;;2.10;99.90;;;;;;4957467;28;20290;-81
2022/04/07 10:16:29;;;;;;;0.60;0.60;;;2.20;99.90;;;;;;4957012;28;20208;-81
2022/04/07 10:19:11;;;;;;;0.70;0.70;;;2.30;99.90;;;;;;4956910;28;20242;-81
2022/04/07 10:22:14;;;;;;;0.70;0.70;;;2.30;99.90;;;;;;4973633;28;20279;-80
2022/04/07 10:24:47;;;;;;;0.70;0.70;;;2.50;99.90;;;;;;4974522;28;20200;-80
2022/04/07 10:30:29;;;;;;;0.60;0.60;;;2.50;99.90;;;;;;4946062;28;20210;-79
2022/04/07 10:32:58;;;;;;;0.60;0.60;;;2.60;99.90;;;;;;4956920;28;20218;-84
2022/04/07 10:35:49;;;;;;;0.93;0.93;;;2.60;99.90;;;;;;4974252;28;20251;-80
2022/04/07 10:38:39;;;;;;;0.80;0.80;;;2.60;99.90;;;;;;4975423;28;20191;-80
2022/04/07 10:41:06;;;;;;;0.70;0.70;;;2.50;99.90;;;;;;4974334;28;20282;-79
2022/04/07 10:43:37;;;;;;;0.50;0.50;;;2.40;99.90;;;;;;4972956;28;20208;-80
2022/04/07 10:46:06;;;;;;;0.70;0.70;;;2.40;99.90;;;;;;4974488;28;20196;-78
2022/04/07 10:48:51;;;;;;;0.70;0.70;;;2.40;99.90;;;;;;4972886;28;20197;-80
2022/04/07 10:51:18;;;;;;;0.50;0.50;;;2.40;99.90;;;;;;4972815;28;20208;-81
2022/04/07 10:53:53;;;;;;;0.70;0.70;;;2.20;99.90;;;;;;4972976;28;20243;-82
2022/04/07 10:56:24;;;;;;;0.70;0.70;;;2.10;99.90;;;;;;4956735;28;20212;-82
2022/04/07 10:58:54;;;;;;;0.80;0.80;;;2.10;99.90;;;;;;4973997;28;20562;-82
2022/04/07 11:01:32;;;;;;;0.68;0.68;;;1.90;99.90;;;;;;4973919;28;20223;-83
2022/04/07 11:07:02;;;;;;;0.70;0.70;;;2.00;99.90;;;;;;4957392;28;20215;-84
2022/04/07 11:09:55;;;;;;;0.60;0.60;;;1.90;99.90;;;;;;4976060;28;20224;-83
2022/04/07 11:12:29;;;;;;;0.68;0.68;;;1.90;99.90;;;;;;4976166;28;20668;-83
2022/04/07 11:15:01;;;;;;;0.60;0.60;;;1.80;99.90;;;;;;4960329;28;20231;-83
2022/04/07 11:17:35;;;;;;;0.70;0.70;;;1.90;99.90;;;;;;4975431;28;20192;-84
2022/04/07 11:20:21;;;;;;;0.50;0.50;;;2.00;99.90;;;;;;4975444;28;20207;-83
2022/04/07 11:22:58;;;;;;;0.63;0.63;;;2.10;99.90;;;;;;4959420;28;20699;-84
2022/04/07 11:25:37;;;;;;;1.02;1.02;;;2.10;99.90;;;;;;4975203;28;20651;-83
2022/04/07 11:28:24;;;;;;;0.57;0.57;;;2.00;99.90;;;;;;4974955;28;20686;-85
2022/04/07 11:30:52;;;;;;;0.60;0.60;;;2.00;99.90;;;;;;4975260;28;20196;-84
2022/04/07 11:33:25;;;;;;;0.70;0.70;;;2.00;99.90;;;;;;4959297;28;20208;-83
2022/04/07 11:36:00;;;;;;;0.60;0.60;;;2.00;99.90;;;;;;4976144;28;20674;-85
2022/04/07 11:38:47;;;;;;;0.70;0.70;;;1.90;99.90;;;;;;4975060;28;20270;-85
2022/04/07 11:41:17;;;;;;;0.57;0.57;;;2.00;99.90;;;;;;4974292;28;20192;-82
2022/04/07 11:43:49;;;;;;;0.52;0.52;;;2.10;99.90;;;;;;4958935;28;20208;-85
2022/04/07 11:46:26;;;;;;;0.60;0.60;;;2.10;99.90;;;;;;4958983;28;20235;-84
2022/04/07 11:48:52;;;;;;;0.80;0.80;;;2.10;99.90;;;;;;4944455;29;20221;-84
2022/04/07 11:51:17;;;;;;;0.60;0.60;;;2.20;99.90;;;;;;4968435;28;20312;-85
2022/04/07 11:53:54;;;;;;;0.60;0.60;;;2.10;99.90;;;;;;4975442;28;20208;-86
2022/04/07 11:56:26;;;;;;;0.63;0.63;;;2.10;99.90;;;;;;4975922;28;20196;-83
2022/04/07 11:59:04;;;;;;;0.60;0.60;;;2.30;99.90;;;;;;4958813;28;20203;-82
2022/04/07 12:01:31;;;;;;;0.60;0.60;;;2.30;99.90;;;;;;4970915;28;20192;-84
2022/04/07 12:04:02;;;;;;;0.60;0.60;;;2.30;99.90;;;;;;4975885;28;20275;-83
2022/04/07 12:06:35;;;;;;;0.60;0.60;;;2.30;99.90;;;;;;4977147;28;20667;-84
2022/04/07 12:09:03;;;;;;;0.60;0.60;;;2.20;99.90;;;;;;4960038;28;20271;-82
2022/04/07 12:11:32;;;;;;;0.70;0.70;;;2.10;99.90;;;;;;4959548;28;20205;-81
2022/04/07 12:13:58;;;;;;;0.60;0.60;;;1.90;99.90;;;;;;4958196;28;20216;-81
2022/04/07 12:16:25;;;;;;;0.68;0.68;;;1.80;99.90;;;;;;4958937;28;20211;-81
2022/04/07 12:19:02;;;;;;;0.70;0.70;;;1.70;99.90;;;;;;4955156;28;20196;-82
2022/04/07 12:21:29;;;;;;;0.60;0.60;;;1.60;99.90;;;;;;4952465;29;20565;-81
2022/04/07 12:24:09;;;;;;;0.68;0.68;;;1.60;99.90;;;;;;4956942;28;20197;-82
2022/04/07 12:26:46;;;;;;;0.70;0.70;;;1.70;99.90;;;;;;4974758;28;20211;-83
2022/04/07 12:29:20;;;;;;;0.70;0.70;;;1.70;99.90;;;;;;4976123;28;20192;-82
2022/04/07 12:32:00;;;;;;;0.60;0.60;;;1.70;99.90;;;;;;4958949;28;20202;-83
2022/04/07 12:34:27;;;;;;;0.65;0.65;;;1.70;99.90;;;;;;4976013;28;20210;-83
2022/04/07 12:36:53;;;;;;;0.68;0.68;;;1.70;99.90;;;;;;4972382;28;20196;-84
2022/04/07 12:39:20;;;;;;;0.60;0.60;;;1.70;99.90;;;;;;4974941;28;20246;-83
2022/04/07 12:41:49;;;;;;;0.60;0.60;;;1.70;99.90;;;;;;4974519;28;20200;-84
2022/04/07 12:44:31;;;;;;;0.60;0.60;;;1.70;99.90;;;;;;4975561;28;20204;-84
2022/04/07 12:47:01;;;;;;;0.70;0.70;;;1.70;99.90;;;;;;4973797;28;20210;-82
2022/04/07 12:49:28;;;;;;;0.60;0.60;;;1.60;99.90;;;;;;4974842;28;20196;-82
2022/04/07 12:52:21;;;;;;;0.60;0.60;;;1.70;99.90;;;;;;4973966;28;20228;-82
2022/04/07 12:54:58;;;;;;;0.70;0.70;;;1.60;99.90;;;;;;4971185;28;20234;-82
2022/04/07 12:57:34;;;;;;;0.60;0.60;;;1.70;99.90;;;;;;4962221;28;20200;-82
2022/04/07 13:00:07;;;;;;;0.50;0.50;;;1.80;99.90;;;;;;4967828;28;20199;-83
2022/04/07 13:03:12;;;;;;;0.60;0.60;;;1.80;99.90;;;;;;4974422;28;20660;-83
2022/04/07 13:05:38;;;;;;;0.65;0.65;;;1.70;99.90;;;;;;4971493;28;20208;-83
2022/04/07 13:08:05;;;;;;;0.60;0.60;;;1.60;99.90;;;;;;4957229;28;20239;-84